createdAt,value
2023-04-29T00:00:07.949Z,7.28
2023-04-29T00:02:35.069Z,7.45
2023-04-29T00:05:05.213Z,8.52
2023-04-29T00:07:49.355Z,7.05
2023-04-29T00:10:16.069Z,6.07
2023-04-29T00:12:42.767Z,5.43
2023-04-29T00:15:09.806Z,5.68
2023-04-29T00:17:36.931Z,5.30
2023-04-29T00:20:04.402Z,5.70
2023-04-29T00:23:14.837Z,5.10
2023-04-29T00:26:31.887Z,5.60
2023-04-29T00:28:58.438Z,5.43
2023-04-29T00:31:25.384Z,5.03
2023-04-29T00:33:52.015Z,5.43
2023-04-29T00:36:18.562Z,5.47
2023-04-29T00:38:54.227Z,5.18
2023-04-29T00:41:21.407Z,5.35
2023-04-29T00:43:48.000Z,5.78
2023-04-29T00:46:14.652Z,5.90
2023-04-29T00:48:41.580Z,5.37
2023-04-29T00:51:08.986Z,5.80
2023-04-29T00:53:36.199Z,5.70
2023-04-29T00:56:03.216Z,6.32
2023-04-29T00:58:35.321Z,7.00
2023-04-29T01:01:03.933Z,6.10
2023-04-29T01:03:32.060Z,7.03
2023-04-29T01:06:21.131Z,9.57
2023-04-29T01:09:13.292Z,8.30
2023-04-29T01:11:50.488Z,13.23
2023-04-29T01:14:17.250Z,10.50
2023-04-29T01:16:51.431Z,13.88
2023-04-29T01:19:48.200Z,15.02
2023-04-29T01:22:43.164Z,15.02
2023-04-29T01:25:56.620Z,15.32
2023-04-29T01:28:47.076Z,13.93
2023-04-29T01:31:31.236Z,13.43
2023-04-29T01:34:14.996Z,12.48
2023-04-29T01:37:15.029Z,13.50
2023-04-29T01:40:10.247Z,10.73
2023-04-29T01:42:44.290Z,10.30
2023-04-29T01:45:16.093Z,10.73
2023-04-29T01:47:43.310Z,9.85
2023-04-29T01:50:10.469Z,11.75
2023-04-29T01:52:42.549Z,10.95
2023-04-29T01:55:09.630Z,11.53
2023-04-29T01:57:36.418Z,11.80
2023-04-29T02:00:04.736Z,11.00
2023-04-29T02:02:35.810Z,10.65
2023-04-29T02:05:22.206Z,9.45
2023-04-29T02:08:00.957Z,10.38
2023-04-29T02:10:28.139Z,9.25
2023-04-29T02:12:54.728Z,11.30
2023-04-29T02:15:21.357Z,11.93
2023-04-29T02:17:48.062Z,11.52
2023-04-29T02:20:14.816Z,12.30
2023-04-29T02:22:47.380Z,13.62
2023-04-29T02:25:17.031Z,13.80
2023-04-29T02:27:43.918Z,13.62
2023-04-29T02:30:11.073Z,14.90
2023-04-29T02:33:08.902Z,14.45
2023-04-29T02:36:06.746Z,15.10
2023-04-29T02:38:42.568Z,14.68
2023-04-29T02:46:19.712Z,13.82
2023-04-29T02:48:46.343Z,15.00
2023-04-29T02:54:14.771Z,14.57
2023-04-29T02:56:41.334Z,14.95
2023-04-29T02:59:07.886Z,16.08
2023-04-29T03:02:24.376Z,14.63
2023-04-29T03:05:38.583Z,14.45
2023-04-29T03:08:05.204Z,15.73
2023-04-29T03:10:31.812Z,14.82
2023-04-29T03:12:58.337Z,16.08
2023-04-29T03:15:24.948Z,16.35
2023-04-29T03:17:51.531Z,14.15
2023-04-29T03:20:18.261Z,13.85
2023-04-29T03:22:44.901Z,10.82
2023-04-29T03:25:11.663Z,10.80
2023-04-29T03:27:38.283Z,8.13
2023-04-29T03:30:06.997Z,8.75
2023-04-29T03:36:05.583Z,8.35
2023-04-29T03:38:32.138Z,7.47
2023-04-29T03:40:58.700Z,7.25
2023-04-29T03:43:25.395Z,7.20
2023-04-29T03:45:52.157Z,6.40
2023-04-29T03:48:20.086Z,5.68
2023-04-29T03:51:05.679Z,5.93
2023-04-29T03:53:32.988Z,6.15
2023-04-29T03:55:59.564Z,5.82
2023-04-29T03:58:26.149Z,5.37
2023-04-29T04:01:12.062Z,5.05
2023-04-29T04:04:28.747Z,4.75
2023-04-29T04:07:01.547Z,4.62
2023-04-29T04:09:28.171Z,4.57
2023-04-29T04:11:54.722Z,4.87
2023-04-29T04:14:21.303Z,4.50
2023-04-29T04:16:50.654Z,5.18
2023-04-29T04:19:17.382Z,4.87
2023-04-29T04:21:43.963Z,5.05
2023-04-29T04:24:10.654Z,5.07
2023-04-29T04:26:37.214Z,5.22
2023-04-29T04:29:03.808Z,4.60
2023-04-29T04:31:31.216Z,4.80
2023-04-29T04:33:59.752Z,4.90
2023-04-29T04:36:26.592Z,4.62
2023-04-29T04:38:53.164Z,4.62
2023-04-29T04:41:19.745Z,4.35
2023-04-29T04:43:46.280Z,5.28
2023-04-29T04:46:14.446Z,4.43
2023-04-29T04:48:41.285Z,4.72
2023-04-29T04:51:52.127Z,5.00
2023-04-29T04:54:56.187Z,6.20
2023-04-29T04:57:22.796Z,6.15
2023-04-29T04:59:49.499Z,6.43
2023-04-29T05:02:16.038Z,6.72
2023-04-29T05:04:42.614Z,7.07
2023-04-29T05:07:15.103Z,8.30
2023-04-29T05:09:41.658Z,7.65
2023-04-29T05:12:08.194Z,8.38
2023-04-29T05:14:34.736Z,8.00
2023-04-29T05:17:01.448Z,6.80
2023-04-29T05:19:28.087Z,7.05
2023-04-29T05:21:54.641Z,7.55
2023-04-29T05:24:21.288Z,7.78
2023-04-29T05:26:50.071Z,7.60
2023-04-29T05:29:16.661Z,8.52
2023-04-29T05:31:43.493Z,7.62
2023-04-29T05:34:10.082Z,7.50
2023-04-29T05:36:36.687Z,7.78
2023-04-29T05:39:03.453Z,6.85
2023-04-29T05:41:30.053Z,7.32
2023-04-29T05:43:56.575Z,7.50
2023-04-29T05:46:23.458Z,7.45
2023-04-29T05:48:50.305Z,7.87
2023-04-29T05:52:06.300Z,7.25
2023-04-29T05:55:04.101Z,7.28
2023-04-29T05:57:31.032Z,6.85
2023-04-29T05:59:59.642Z,7.62
2023-04-29T06:02:27.157Z,6.80
2023-04-29T06:04:54.055Z,6.40
2023-04-29T06:07:30.050Z,6.55
2023-04-29T06:09:57.051Z,6.70
2023-04-29T06:12:23.639Z,7.07
2023-04-29T06:14:50.484Z,6.90
2023-04-29T06:17:17.088Z,5.80
2023-04-29T06:19:43.647Z,5.95
2023-04-29T06:22:19.257Z,5.32
2023-04-29T06:24:47.391Z,5.43
2023-04-29T06:27:13.928Z,5.00
2023-04-29T06:29:40.573Z,5.30
2023-04-29T06:32:32.301Z,5.03
2023-04-29T06:35:15.511Z,5.18
2023-04-29T06:40:17.879Z,4.93
2023-04-29T06:42:44.627Z,5.20
2023-04-29T06:45:11.391Z,5.47
2023-04-29T06:47:38.148Z,5.07
2023-04-29T06:50:05.305Z,5.65
2023-04-29T06:52:32.136Z,5.37
2023-04-29T06:54:58.737Z,5.15
2023-04-29T06:57:44.067Z,5.45
2023-04-29T07:00:10.849Z,5.22
2023-04-29T07:02:39.091Z,6.18
2023-04-29T07:05:06.512Z,5.50
2023-04-29T07:07:33.135Z,5.93
2023-04-29T07:09:59.701Z,5.30
2023-04-29T07:12:26.859Z,5.57
2023-04-29T07:14:53.423Z,5.60
2023-04-29T07:17:20.774Z,5.00
2023-04-29T07:19:47.635Z,5.18
2023-04-29T07:22:14.170Z,4.93
2023-04-29T07:24:41.538Z,5.78
2023-04-29T07:27:11.483Z,5.20
2023-04-29T07:29:38.596Z,4.90
2023-04-29T07:32:05.134Z,5.10
2023-04-29T07:34:31.667Z,5.35
2023-04-29T07:36:58.317Z,5.50
2023-04-29T07:39:39.988Z,5.65
2023-04-29T07:42:06.560Z,5.60
2023-04-29T07:44:33.123Z,5.25
2023-04-29T07:46:59.674Z,5.68
2023-04-29T07:49:26.582Z,6.62
2023-04-29T07:51:53.167Z,6.07
2023-04-29T07:54:19.861Z,5.60
2023-04-29T07:56:46.676Z,5.70
2023-04-29T07:59:13.365Z,5.07
2023-04-29T08:01:43.080Z,4.57
2023-04-29T08:04:09.897Z,4.87
2023-04-29T08:06:36.544Z,4.45
2023-04-29T08:09:03.420Z,4.62
2023-04-29T08:11:30.057Z,4.53
2023-04-29T08:13:58.707Z,5.50
2023-04-29T08:16:26.274Z,5.30
2023-04-29T08:18:53.393Z,5.78
2023-04-29T08:21:20.225Z,4.95
2023-04-29T08:23:46.728Z,4.65
2023-04-29T08:26:13.259Z,4.80
2023-04-29T08:28:39.939Z,5.12
2023-04-29T08:31:07.710Z,4.95
2023-04-29T08:33:35.299Z,3.92
2023-04-29T08:36:03.715Z,4.22
2023-04-29T08:38:31.132Z,4.68
2023-04-29T08:40:58.515Z,4.37
2023-04-29T08:43:26.850Z,4.57
2023-04-29T08:45:53.804Z,4.32
2023-04-29T08:48:21.336Z,4.55
2023-04-29T08:50:47.954Z,10.02
2023-04-29T08:53:15.077Z,4.60
2023-04-29T08:55:46.805Z,4.22
2023-04-29T08:58:15.075Z,6.47
2023-04-29T09:00:45.345Z,4.68
2023-04-29T09:03:30.166Z,3.47
2023-04-29T09:06:01.072Z,3.85
2023-04-29T09:08:28.295Z,3.95
2023-04-29T09:10:56.548Z,4.28
2023-04-29T09:13:27.596Z,4.05
2023-04-29T09:15:54.841Z,3.60
2023-04-29T09:18:46.231Z,3.55
2023-04-29T09:21:22.280Z,3.40
2023-04-29T09:23:52.306Z,4.05
2023-04-29T09:26:19.383Z,4.37
2023-04-29T09:28:47.589Z,4.18
2023-04-29T09:31:14.406Z,4.10
2023-04-29T09:33:52.542Z,4.00
2023-04-29T09:36:46.544Z,3.65
2023-04-29T09:39:20.742Z,3.53
2023-04-29T09:41:53.339Z,3.58
2023-04-29T09:44:33.857Z,3.70
2023-04-29T09:47:06.671Z,3.20
2023-04-29T09:49:38.620Z,3.62
2023-04-29T09:52:10.741Z,3.40
2023-04-29T09:54:39.708Z,3.45
2023-04-29T09:57:07.444Z,3.00
2023-04-29T09:59:36.250Z,3.33
2023-04-29T10:02:09.301Z,3.22
2023-04-29T10:04:40.465Z,3.28
2023-04-29T10:07:08.563Z,3.45
2023-04-29T10:09:38.099Z,3.45
2023-04-29T10:12:07.432Z,3.28
2023-04-29T10:14:43.763Z,2.83
2023-04-29T10:17:27.744Z,3.60
2023-04-29T10:20:05.741Z,2.70
2023-04-29T10:22:54.842Z,3.28
2023-04-29T10:25:23.102Z,2.72
2023-04-29T10:27:53.071Z,3.20
2023-04-29T10:30:21.742Z,3.37
2023-04-29T10:32:52.384Z,3.42
2023-04-29T10:35:25.756Z,3.22
2023-04-29T10:37:59.928Z,3.15
2023-04-29T10:40:40.279Z,3.20
2023-04-29T10:43:07.004Z,3.22
2023-04-29T10:45:37.717Z,3.42
2023-04-29T10:48:08.936Z,3.15
2023-04-29T10:50:59.968Z,3.20
2023-04-29T10:53:28.106Z,3.15
2023-04-29T10:56:05.295Z,3.20
2023-04-29T10:58:36.956Z,3.47
2023-04-29T11:01:04.584Z,3.83
2023-04-29T11:03:46.365Z,3.90
2023-04-29T11:06:13.152Z,4.50
2023-04-29T11:08:45.921Z,3.65
2023-04-29T11:13:41.125Z,3.22
2023-04-29T11:16:08.752Z,3.53
2023-04-29T11:18:36.865Z,3.42
2023-04-29T11:21:06.499Z,3.55
2023-04-29T11:23:37.462Z,3.33
2023-04-29T11:26:04.746Z,3.60
2023-04-29T11:28:32.398Z,4.07
2023-04-29T11:30:59.891Z,4.18
2023-04-29T11:33:28.053Z,4.40
2023-04-29T11:35:55.383Z,3.80
2023-04-29T11:38:26.646Z,3.53
2023-04-29T11:40:55.019Z,4.15
2023-04-29T11:43:25.707Z,3.60
2023-04-29T11:45:53.486Z,3.53
2023-04-29T11:48:25.498Z,9.02
2023-04-29T11:50:55.058Z,3.67
2023-04-29T11:53:25.200Z,3.60
2023-04-29T11:55:55.329Z,3.35
2023-04-29T11:58:23.789Z,3.80
2023-04-29T12:00:51.889Z,4.20
2023-04-29T12:03:21.199Z,3.58
2023-04-29T12:05:50.772Z,3.70
2023-04-29T12:08:27.968Z,3.70
2023-04-29T12:10:57.377Z,3.47
2023-04-29T12:13:26.179Z,3.70
2023-04-29T12:15:53.236Z,3.33
2023-04-29T12:18:22.839Z,3.30
2023-04-29T12:20:54.715Z,3.45
2023-04-29T12:23:23.464Z,4.07
2023-04-29T12:25:52.293Z,3.62
2023-04-29T12:28:20.056Z,3.78
2023-04-29T12:30:47.978Z,3.47
2023-04-29T12:33:22.618Z,3.67
2023-04-29T12:35:53.239Z,3.22
2023-04-29T12:38:27.680Z,3.42
2023-04-29T12:40:55.931Z,3.53
2023-04-29T12:43:29.844Z,3.40
2023-04-29T12:46:10.649Z,3.22
2023-04-29T12:48:38.747Z,3.22
2023-04-29T12:51:05.872Z,3.20
2023-04-29T12:53:32.684Z,3.75
2023-04-29T12:55:59.755Z,3.20
2023-04-29T12:58:30.574Z,3.70
2023-04-29T13:00:57.717Z,3.55
2023-04-29T13:03:24.943Z,3.35
2023-04-29T13:05:53.759Z,3.47
2023-04-29T13:08:21.218Z,2.90
2023-04-29T13:10:47.856Z,3.62
2023-04-29T13:13:14.405Z,5.95
2023-04-29T13:15:41.323Z,3.05
2023-04-29T13:18:08.212Z,3.10
2023-04-29T13:20:40.850Z,3.22
2023-04-29T13:23:10.845Z,3.78
2023-04-29T13:25:37.490Z,3.17
2023-04-29T13:28:07.676Z,3.40
2023-04-29T13:30:34.668Z,3.37
2023-04-29T13:33:09.340Z,3.42
2023-04-29T13:35:40.236Z,3.58
2023-04-29T13:38:07.744Z,3.35
2023-04-29T13:40:38.857Z,3.22
2023-04-29T13:43:09.586Z,3.00
2023-04-29T13:45:39.823Z,3.17
2023-04-29T13:48:26.047Z,3.10
2023-04-29T13:54:02.008Z,2.80
2023-04-29T13:59:30.543Z,3.33
2023-04-29T14:06:28.517Z,3.30
2023-04-29T14:08:55.429Z,2.70
2023-04-29T14:11:22.022Z,3.17
2023-04-29T14:13:48.609Z,2.78
2023-04-29T14:16:15.331Z,2.87
2023-04-29T14:18:41.932Z,2.65
2023-04-29T14:21:08.586Z,3.00
2023-04-29T14:23:35.252Z,2.62
2023-04-29T14:26:22.515Z,3.10
2023-04-29T14:28:48.479Z,3.50
2023-04-29T14:31:15.215Z,2.67
2023-04-29T14:33:41.900Z,3.22
2023-04-29T14:36:09.314Z,3.25
2023-04-29T14:38:35.899Z,3.08
2023-04-29T14:41:02.712Z,3.15
2023-04-29T14:43:29.254Z,2.80
2023-04-29T14:45:56.167Z,2.55
2023-04-29T14:48:22.811Z,2.90
2023-04-29T14:50:49.562Z,2.97
2023-04-29T14:53:18.213Z,2.60
2023-04-29T14:55:44.758Z,2.42
2023-04-29T14:58:11.361Z,3.15
2023-04-29T15:00:38.003Z,2.90
2023-04-29T15:03:05.266Z,2.83
2023-04-29T15:05:32.029Z,2.80
2023-04-29T15:08:00.264Z,3.28
2023-04-29T15:10:30.173Z,2.80
2023-04-29T15:12:56.805Z,2.70
2023-04-29T15:15:23.700Z,3.12
2023-04-29T15:17:50.685Z,3.03
2023-04-29T15:23:06.665Z,3.20
2023-04-29T15:25:36.606Z,3.17
2023-04-29T15:28:04.988Z,2.72
2023-04-29T15:30:32.101Z,3.10
2023-04-29T15:32:58.869Z,3.03
2023-04-29T15:35:40.999Z,2.97
2023-04-29T15:38:38.710Z,3.10
2023-04-29T15:41:44.266Z,3.25
2023-04-29T15:44:11.586Z,3.12
2023-04-29T15:46:38.179Z,3.37
2023-04-29T15:49:08.537Z,3.40
2023-04-29T15:51:35.255Z,3.42
2023-04-29T15:54:04.384Z,3.67
2023-04-29T15:56:32.258Z,3.42
2023-04-29T15:58:58.790Z,3.10
2023-04-29T16:01:25.445Z,3.37
2023-04-29T16:03:55.102Z,2.83
2023-04-29T16:06:21.902Z,3.60
2023-04-29T16:08:50.190Z,3.60
2023-04-29T16:11:16.770Z,3.30
2023-04-29T16:13:43.408Z,3.67
2023-04-29T16:16:10.274Z,3.28
2023-04-29T16:18:36.890Z,3.53
2023-04-29T16:21:04.189Z,3.22
2023-04-29T16:23:30.911Z,2.97
2023-04-29T16:26:00.118Z,4.30
2023-04-29T16:28:26.851Z,3.62
2023-04-29T16:30:53.528Z,3.33
2023-04-29T16:33:20.073Z,3.70
2023-04-29T16:35:46.966Z,3.17
2023-04-29T16:38:13.506Z,2.60
2023-04-29T16:40:40.043Z,3.65
2023-04-29T16:43:06.807Z,3.42
2023-04-29T16:45:33.454Z,2.80
2023-04-29T16:48:00.902Z,3.37
2023-04-29T16:50:27.812Z,3.00
2023-04-29T16:52:54.462Z,2.87
2023-04-29T16:55:21.024Z,2.95
2023-04-29T16:57:47.576Z,3.10
2023-04-29T17:00:14.333Z,2.80
2023-04-29T17:02:42.919Z,4.05
2023-04-29T17:05:10.911Z,3.67
2023-04-29T17:07:37.662Z,3.50
2023-04-29T17:10:05.072Z,3.08
2023-04-29T17:12:33.322Z,3.33
2023-04-29T17:14:59.943Z,3.33
2023-04-29T17:17:26.554Z,2.95
2023-04-29T17:19:53.364Z,3.12
2023-04-29T17:22:20.471Z,2.75
2023-04-29T17:24:47.112Z,2.75
2023-04-29T17:27:13.683Z,2.95
2023-04-29T17:29:40.907Z,3.58
2023-04-29T17:32:12.560Z,3.70
2023-04-29T17:34:39.402Z,3.83
2023-04-29T17:37:06.676Z,4.03
2023-04-29T17:39:34.104Z,4.53
2023-04-29T17:42:03.680Z,4.12
2023-04-29T17:44:30.564Z,4.47
2023-04-29T17:46:57.132Z,5.05
2023-04-29T17:49:23.698Z,3.95
2023-04-29T17:51:50.291Z,4.93
2023-04-29T17:54:32.333Z,4.20
2023-04-29T17:57:02.040Z,4.03
2023-04-29T17:59:29.184Z,3.90
2023-04-29T18:01:55.739Z,4.43
2023-04-29T18:04:22.541Z,4.05
2023-04-29T18:06:49.121Z,4.43
2023-04-29T18:09:16.253Z,4.15
2023-04-29T18:11:42.854Z,4.80
2023-04-29T18:14:09.611Z,4.05
2023-04-29T18:16:36.603Z,4.15
2023-04-29T18:19:03.394Z,3.53
2023-04-29T18:21:30.248Z,3.87
2023-04-29T18:23:57.456Z,3.87
2023-04-29T18:26:24.127Z,3.40
2023-04-29T18:28:50.831Z,4.00
2023-04-29T18:31:18.666Z,3.78
2023-04-29T18:33:45.553Z,3.80
2023-04-29T18:36:14.177Z,4.35
2023-04-29T18:38:41.109Z,4.10
2023-04-29T18:41:08.666Z,4.37
2023-04-29T18:43:35.608Z,4.10
2023-04-29T18:46:02.232Z,4.00
2023-04-29T18:48:29.772Z,4.30
2023-04-29T18:50:59.243Z,4.25
2023-04-29T18:53:26.771Z,4.60
2023-04-29T18:55:53.410Z,4.97
2023-04-29T18:58:19.995Z,4.28
2023-04-29T19:00:47.057Z,4.37
2023-04-29T19:03:13.688Z,4.70
2023-04-29T19:05:40.349Z,4.97
2023-04-29T19:08:07.404Z,4.70
2023-04-29T19:10:34.449Z,4.90
2023-04-29T19:13:00.992Z,4.70
2023-04-29T19:15:32.897Z,5.28
2023-04-29T19:17:59.560Z,5.03
2023-04-29T19:20:26.735Z,4.82
2023-04-29T19:22:53.448Z,5.10
2023-04-29T19:25:21.210Z,4.60
2023-04-29T19:27:49.158Z,4.57
2023-04-29T19:30:16.558Z,5.00
2023-04-29T19:32:45.246Z,4.45
2023-04-29T19:35:12.011Z,5.10
2023-04-29T19:37:38.558Z,4.57
2023-04-29T19:40:05.726Z,4.47
2023-04-29T19:42:32.313Z,4.12
2023-04-29T19:44:59.255Z,4.72
2023-04-29T19:47:25.957Z,4.78
2023-04-29T19:49:52.666Z,4.90
2023-04-29T19:52:19.567Z,5.18
2023-04-29T19:54:46.169Z,5.05
2023-04-29T19:57:12.713Z,4.78
2023-04-29T19:59:39.323Z,4.18
2023-04-29T20:02:05.929Z,5.68
2023-04-29T20:04:32.472Z,5.50
2023-04-29T20:06:59.007Z,5.90
2023-04-29T20:09:26.524Z,6.93
2023-04-29T20:11:53.140Z,6.60
2023-04-29T20:14:19.691Z,6.40
2023-04-29T20:16:46.291Z,6.90
2023-04-29T20:19:13.120Z,6.07
2023-04-29T20:21:40.332Z,5.53
2023-04-29T20:24:07.183Z,6.10
2023-04-29T20:26:33.847Z,5.80
2023-04-29T20:29:00.462Z,5.95
2023-04-29T20:31:27.048Z,5.85
2023-04-29T20:33:53.843Z,4.90
2023-04-29T20:36:21.338Z,5.32
2023-04-29T20:38:49.155Z,5.60
2023-04-29T20:41:28.592Z,5.70
2023-04-29T20:43:55.747Z,5.53
2023-04-29T20:46:24.626Z,4.85
2023-04-29T20:48:52.528Z,5.57
2023-04-29T20:51:38.854Z,5.00
2023-04-29T20:54:36.697Z,4.97
2023-04-29T20:57:05.638Z,5.75
2023-04-29T20:59:33.557Z,5.50
2023-04-29T21:02:00.268Z,5.07
2023-04-29T21:04:27.050Z,5.47
2023-04-29T21:06:53.693Z,5.68
2023-04-29T21:09:21.453Z,5.12
2023-04-29T21:11:48.170Z,5.15
2023-04-29T21:14:14.982Z,5.22
2023-04-29T21:16:42.435Z,5.57
2023-04-29T21:19:09.008Z,5.35
2023-04-29T21:21:35.616Z,5.45
2023-04-29T21:24:02.245Z,6.15
2023-04-29T21:26:56.689Z,5.80
2023-04-29T21:29:40.631Z,5.57
2023-04-29T21:32:08.135Z,5.40
2023-04-29T21:34:35.759Z,6.03
2023-04-29T21:37:02.334Z,5.78
2023-04-29T21:39:28.960Z,6.30
2023-04-29T21:41:55.966Z,7.40
2023-04-29T21:44:40.931Z,6.30
2023-04-29T21:47:08.110Z,6.10
2023-04-29T21:49:34.805Z,6.53
2023-04-29T21:52:01.760Z,5.93
2023-04-29T21:54:37.896Z,6.60
2023-04-29T21:57:35.544Z,6.12
2023-04-29T22:00:36.604Z,6.25
2023-04-29T22:05:31.349Z,6.05
2023-04-29T22:07:59.707Z,5.62
2023-04-29T22:10:26.462Z,6.03
2023-04-29T22:12:53.080Z,5.80
2023-04-29T22:15:38.401Z,5.57
2023-04-29T22:18:05.258Z,5.93
2023-04-29T22:20:31.885Z,6.18
2023-04-29T22:22:59.612Z,5.32
2023-04-29T22:26:23.412Z,5.70
2023-04-29T22:29:12.177Z,5.68
2023-04-29T22:31:38.763Z,6.07
2023-04-29T22:34:05.318Z,5.78
2023-04-29T22:36:32.787Z,5.75
2023-04-29T22:38:59.353Z,5.85
2023-04-29T22:41:25.905Z,5.95
2023-04-29T22:43:57.166Z,5.75
2023-04-29T22:46:26.930Z,6.12
2023-04-29T22:48:53.605Z,6.22
2023-04-29T22:51:20.221Z,6.18
2023-04-29T22:53:46.815Z,6.22
2023-04-29T22:56:13.358Z,5.62
2023-04-29T22:58:40.664Z,5.50
2023-04-29T23:01:07.914Z,5.68
2023-04-29T23:03:36.030Z,5.45
2023-04-29T23:06:06.613Z,5.60
2023-04-29T23:08:33.315Z,5.50
2023-04-29T23:10:59.887Z,6.15
2023-04-29T23:13:26.512Z,5.78
2023-04-29T23:15:56.691Z,5.78
2023-04-29T23:18:23.429Z,5.95
2023-04-29T23:20:49.971Z,5.97
2023-04-29T23:23:16.536Z,5.95
2023-04-29T23:25:43.755Z,5.68
2023-04-29T23:28:10.310Z,5.55
2023-04-29T23:31:11.020Z,5.90
2023-04-29T23:34:17.930Z,5.75
2023-04-29T23:36:44.479Z,5.37
2023-04-29T23:39:11.078Z,5.62
2023-04-29T23:41:37.638Z,5.57
2023-04-29T23:44:04.299Z,5.95
2023-04-29T23:46:30.958Z,5.43
2023-04-29T23:48:57.533Z,5.95
2023-04-29T23:51:24.076Z,6.25
2023-04-29T23:53:50.651Z,6.22
2023-04-29T23:56:17.249Z,5.78
2023-04-29T23:58:43.823Z,6.18
